Latest Weather Observations for Red Rocks Point

IDW60801

Issued at 8:23 am WST Monday 26 August 2019 (issued every 10 minutes, with the page automatically refreshed every 10 minutes)

About weather observations | Map of weather stations | Latest weather observations for WA | Other Formats
Station Details ID: 011053 Name: RED ROCKS POINT Lat: -32.20 Lon: 127.53 Height: 3.1 m
Data from the previous 72 hours. | See also: Recent months at Red Rocks Point
Date/Time
WST
Temp
°C
App
Temp
°C
Dew
Point
°C
Rel
Hum
%
Delta-T
°C
Wind Press
QNH
hPa
Press
MSL
hPa
Rain since
9am
mm
Dir  Spd
km/h
Gust
km/h
Spd
kts
Gust
kts
26/08:00am 12.5 9.7 5.0 60 3.4 NNE 9 15 5 8 1030.2 1030.2 0.0
26/07:30am 12.0 9.8 5.2 63 3.1 NNE 6 9 3 5 1029.9 1029.9 0.0
26/07:00am 11.1 8.2 4.8 65 2.8 NNE 9 15 5 8 1029.5 1029.5 0.0
26/06:30am 10.4 7.0 4.1 65 2.8 N 11 15 6 8 1029.2 1029.2 0.0
26/06:00am 10.1 6.8 4.3 67 2.6 N 11 13 6 7 1029.0 1029.0 0.0
26/05:30am 10.1 6.7 4.0 66 2.7 N 11 13 6 7 1028.8 1028.8 0.0
26/05:00am 10.0 7.1 4.4 68 2.5 N 9 11 5 6 1028.4 1028.4 0.0
26/04:30am 9.9 6.6 4.3 68 2.5 NNW 11 13 6 7 1028.4 1028.4 0.0
26/04:00am 9.7 7.3 4.1 68 2.4 N 6 9 3 5 1028.4 1028.4 0.0
26/03:30am 10.1 8.8 4.0 66 2.7 CALM 0 0 0 0 1028.3 1028.3 0.0
26/03:00am 10.4 9.1 4.1 65 2.8 CALM 0 0 0 0 1028.2 1028.2 0.0
26/02:30am 10.4 9.1 4.1 65 2.8 CALM 0 0 0 0 1028.1 1028.1 0.0
26/02:00am 10.4 9.1 4.1 65 2.8 CALM 0 0 0 0 1028.1 1028.1 0.0
26/01:30am 10.9 8.8 3.9 62 3.1 NNE 4 7 2 4 1028.2 1028.2 0.0
26/01:00am 11.3 8.3 4.1 61 3.2 N 9 11 5 6 1028.7 1028.7 0.0
26/12:30am 11.1 8.0 3.6 60 3.3 N 9 13 5 7 1029.0 1029.0 0.0
26/12:00am 11.1 8.7 4.1 62 3.1 NNE 6 9 3 5 1029.0 1029.0 0.0
 
Date/Time
WST
Temp
°C
App
Temp
°C
Dew
Point
°C
Rel
Hum
%
Delta-T
°C
Wind Press
QNH
hPa
Press
MSL
hPa
Rain since
9am
mm
Dir  Spd
km/h
Gust
km/h
Spd
kts
Gust
kts
25/11:30pm 11.3 8.9 4.1 61 3.2 NNE 6 7 3 4 1029.2 1029.2 0.0
25/11:00pm 11.4 8.9 3.7 59 3.4 NNE 6 7 3 4 1029.3 1029.3 0.0
25/10:30pm 11.7 8.6 3.5 57 3.6 NNE 9 11 5 6 1029.3 1029.3 0.0
25/10:00pm 12.2 8.7 3.7 56 3.8 NNE 11 13 6 7 1029.4 1029.4 0.0
25/09:30pm 12.7 8.8 3.6 54 4.1 NE 13 17 7 9 1029.6 1029.6 0.0
25/09:00pm 13.0 9.0 4.9 58 3.7 E 15 20 8 11 1029.6 1029.6 0.0
25/08:30pm 13.0 8.5 4.4 56 3.9 ESE 17 22 9 12 1029.4 1029.4 0.0
25/08:00pm 13.1 8.1 3.7 53 4.2 ENE 19 26 10 14 1029.1 1029.1 0.0
25/07:30pm 13.1 8.0 4.3 55 4.0 E 20 24 11 13 1028.9 1028.9 0.0
25/07:00pm 13.1 8.2 4.0 54 4.1 E 19 30 10 16 1028.8 1028.8 0.0
25/06:30pm 13.2 6.8 5.4 59 3.6 E 28 32 15 17 1028.5 1028.5 0.0
25/06:00pm 13.1 7.2 5.8 61 3.4 ESE 26 32 14 17 1028.2 1028.2 0.0
25/05:30pm 13.1 7.1 5.3 59 3.6 ESE 26 30 14 16 1028.0 1028.0 0.0
25/05:00pm 13.2 7.4 6.1 62 3.3 E 26 32 14 17 1027.9 1027.9 0.0
25/04:30pm 13.3 7.5 6.2 62 3.4 E 26 30 14 16 1027.7 1027.7 0.0
25/04:00pm 13.5 7.7 6.1 61 3.5 ESE 26 30 14 16 1027.4 1027.4 0.0
25/03:30pm 13.7 8.2 5.8 59 3.7 ESE 24 32 13 17 1027.3 1027.3 0.0
25/03:00pm 13.9 8.9 6.5 61 3.5 ESE 22 28 12 15 1027.2 1027.2 0.0
25/02:30pm 13.9 8.5 6.3 60 3.6 E 24 28 13 15 1027.3 1027.3 0.0
25/02:00pm 14.1 9.5 6.5 60 3.6 E 20 24 11 13 1027.5 1027.5 0.0
25/01:30pm 14.0 9.2 7.3 64 3.3 E 22 28 12 15 1027.7 1027.7 0.0
25/01:00pm 14.3 9.9 6.4 59 3.8 E 19 22 10 12 1027.9 1027.9 0.0
25/12:30pm 14.7 10.8 5.5 54 4.4 ESE 15 20 8 11 1028.1 1028.1 0.0
25/12:00pm 14.8 10.0 4.8 51 4.6 ESE 19 22 10 12 1028.5 1028.5 0.0
25/11:30am 14.8 10.5 5.1 52 4.6 ESE 17 20 9 11 1029.0 1029.0 0.0
25/11:00am 14.6 11.5 5.7 55 4.2 E 11 17 6 9 1029.3 1029.3 0.0
25/10:30am 14.3 10.6 6.2 58 3.9 E 15 22 8 12 1029.5 1029.5 0.0
25/10:00am 14.1 11.9 6.0 58 3.8 SSE 7 9 4 5 1029.6 1029.6 0.0
25/09:30am 13.9 11.3 6.0 59 3.8 S 9 11 5 6 1029.5 1029.5 0.0
25/09:00am 14.5 11.8 5.6 55 4.2 S 9 11 5 6 1029.6 1029.6 0.0
25/08:30am 14.8 13.5 5.9 55 4.3 ESE 2 7 1 4 1029.6 1029.6 0.0
25/08:00am 12.8 10.6 6.2 64 3.1 NNE 7 11 4 6 1029.6 1029.6 0.0
25/07:30am 9.8 7.7 6.5 80 1.5 NNW 7 13 4 7 1029.5 1029.5 0.0
25/07:00am 7.9 4.8 5.7 86 1.0 NNW 11 15 6 8 1029.0 1029.0 0.0
25/06:30am 7.1 3.5 4.8 85 1.0 NNW 13 15 7 8 1028.7 1028.7 0.0
25/06:00am 7.9 4.6 4.5 79 1.5 NW 11 15 6 8 1028.5 1028.5 0.0
25/05:30am 10.4 6.3 4.1 65 2.8 E 15 20 8 11 1028.3 1028.3 0.0
25/05:00am 12.2 8.2 4.9 61 3.3 SE 15 19 8 10 1028.0 1028.0 0.0
25/04:30am 12.4 7.6 4.9 60 3.4 SE 19 22 10 12 1027.8 1027.8 0.0
25/04:00am 12.4 8.3 4.1 57 3.7 SE 15 19 8 10 1027.6 1027.6 0.0
25/03:30am 12.4 7.5 4.9 60 3.4 SE 20 26 11 14 1027.3 1027.3 0.0
25/03:00am 12.4 7.6 5.6 63 3.1 SE 20 24 11 13 1027.3 1027.3 0.0
25/02:30am 12.3 7.4 5.2 62 3.3 SE 20 28 11 15 1027.3 1027.3 0.0
25/02:00am 12.3 7.4 5.2 62 3.3 SE 20 24 11 13 1027.6 1027.6 0.0
25/01:30am 12.1 7.3 5.5 64 3.1 SE 20 24 11 13 1027.8 1027.8 0.0
25/01:00am 12.0 7.5 5.9 66 2.8 SE 19 22 10 12 1027.9 1027.9 0.0
25/12:30am 12.0 7.4 6.5 69 2.6 SE 20 24 11 13 1028.1 1028.1 0.0
25/12:00am 11.9 7.2 6.2 68 2.7 SE 20 22 11 12 1028.3 1028.3 0.0
 
Date/Time
WST
Temp
°C
App
Temp
°C
Dew
Point
°C
Rel
Hum
%
Delta-T
°C
Wind Press
QNH
hPa
Press
MSL
hPa
Rain since
9am
mm
Dir  Spd
km/h
Gust
km/h
Spd
kts
Gust
kts
24/11:30pm 12.0 7.1 6.9 71 2.4 SE 22 26 12 14 1028.2 1028.2 0.0
24/11:00pm 11.9 7.4 6.8 71 2.4 SE 20 24 11 13 1028.3 1028.3 0.0
24/10:30pm 11.9 7.3 6.6 70 2.5 SE 20 24 11 13 1028.5 1028.5 0.0
24/10:00pm 12.2 7.0 7.1 71 2.4 SSE 24 28 13 15 1028.4 1028.4 0.0
24/09:30pm 12.0 6.1 7.7 75 2.1 SE 28 32 15 17 1028.4 1028.4 0.0
24/09:00pm 12.1 7.9 7.6 74 2.2 SE 19 22 10 12 1028.4 1028.4 0.0
24/08:30pm 12.1 7.5 8.0 76 2.0 SE 22 26 12 14 1028.5 1028.5 0.0
24/08:00pm 12.2 7.5 7.7 74 2.2 SSE 22 28 12 15 1028.2 1028.2 0.0
24/07:30pm 12.2 7.5 7.9 75 2.1 SE 22 26 12 14 1028.0 1028.0 0.0
24/07:00pm 11.9 7.8 7.8 76 2.0 SSE 19 22 10 12 1027.7 1027.7 0.0
24/06:30pm 11.5 7.5 8.4 81 1.5 SE 19 24 10 13 1027.5 1027.5 0.0
24/06:00pm 11.9 9.1 8.4 79 1.7 ESE 13 17 7 9 1026.9 1026.9 0.0
24/05:30pm 12.3 8.5 7.6 73 2.3 SSE 17 20 9 11 1026.6 1026.6 0.0
24/05:00pm 12.6 8.9 7.9 73 2.3 S 17 20 9 11 1026.4 1026.4 0.0
24/04:30pm 13.1 9.4 7.8 70 2.6 S 17 20 9 11 1026.2 1026.2 0.0
24/04:00pm 13.0 9.3 7.9 71 2.5 SSE 17 20 9 11 1025.9 1025.9 0.0
24/03:30pm 13.4 9.2 8.3 71 2.5 SSE 20 24 11 13 1025.7 1025.7 0.0
24/03:00pm 14.0 8.9 9.2 73 2.4 SSE 26 30 14 16 1025.6 1025.6 0.0
24/02:30pm 14.3 9.4 8.5 68 2.9 S 24 30 13 16 1025.5 1025.5 0.0
24/02:00pm 15.2 10.4 7.5 60 3.8 S 22 28 12 15 1025.3 1025.3 0.0
24/01:30pm 15.3 10.2 7.8 61 3.7 S 24 28 13 15 1025.2 1025.2 0.0
24/01:00pm 15.4 10.2 7.4 59 3.9 S 24 30 13 16 1025.1 1025.1 0.0
24/12:30pm 15.8 10.6 9.0 64 3.5 S 26 32 14 17 1025.3 1025.3 0.0
24/12:00pm 16.1 11.1 6.5 53 4.7 S 22 26 12 14 1025.4 1025.4 0.0
24/11:30am 16.0 11.4 6.7 54 4.6 S 20 24 11 13 1025.5 1025.5 0.0
24/11:00am 15.9 11.0 7.1 56 4.3 S 22 28 12 15 1025.8 1025.8 0.0
24/10:30am 16.0 11.0 8.0 59 4.0 S 24 30 13 16 1025.7 1025.7 0.0
24/10:00am 16.3 11.5 8.8 61 3.8 S 24 32 13 17 1025.7 1025.7 0.0
24/09:30am 15.5 10.6 7.0 57 4.2 S 22 28 12 15 1025.5 1025.5 0.0
24/09:00am 15.1 9.9 7.2 59 3.9 S 24 28 13 15 1025.2 1025.2 0.0
24/08:30am 14.5 9.1 7.8 64 3.3 S 26 30 14 16 1024.9 1024.9 0.0
24/08:00am 13.5 8.4 7.7 68 2.8 S 24 30 13 16 1024.6 1024.6 0.0
24/07:30am 12.6 8.2 9.1 79 1.8 S 22 28 12 15 1024.3 1024.3 0.0
24/07:00am 12.7 7.9 8.8 77 1.9 S 24 30 13 16 1023.8 1023.8 0.0
24/06:30am 11.8 6.2 8.8 82 1.5 SSW 28 35 15 19 1023.5 1023.5 0.0
24/06:00am 12.9 7.8 7.6 70 2.6 S 24 30 13 16 1023.0 1023.0 0.0
24/05:30am 12.8 8.1 7.7 71 2.5 SSW 22 30 12 16 1022.5 1022.5 0.0
24/05:00am 12.4 7.6 7.3 71 2.5 SSW 22 30 12 16 1022.1 1022.1 0.0
24/04:30am 12.6 6.6 6.9 68 2.7 SSW 28 35 15 19 1021.8 1021.8 0.0
24/04:00am 12.6 7.4 7.3 70 2.6 SSW 24 32 13 17 1021.6 1021.6 0.0
24/03:30am 12.6 6.6 7.1 69 2.7 SSW 28 39 15 21 1021.2 1021.2 0.0
24/03:00am 12.6 6.7 7.3 70 2.6 SSW 28 39 15 21 1020.9 1020.9 0.0
24/02:30am 13.0 7.6 7.9 71 2.5 SSW 26 35 14 19 1020.7 1020.7 0.0
24/02:00am 12.9 8.2 7.8 71 2.5 SSW 22 32 12 17 1020.8 1020.8 0.0
24/01:30am 12.8 8.7 8.5 75 2.1 SSW 20 28 11 15 1020.7 1020.7 0.0
24/01:00am 13.2 9.0 8.3 72 2.4 SSW 20 30 11 16 1020.6 1020.6 0.0
24/12:30am 13.2 7.8 7.9 70 2.6 SSW 26 35 14 19 1020.6 1020.6 0.0
24/12:00am 13.1 8.1 8.0 71 2.5 SSW 24 32 13 17 1020.4 1020.4 0.0
 
Date/Time
WST
Temp
°C
App
Temp
°C
Dew
Point
°C
Rel
Hum
%
Delta-T
°C
Wind Press
QNH
hPa
Press
MSL
hPa
Rain since
9am
mm
Dir  Spd
km/h
Gust
km/h
Spd
kts
Gust
kts
23/11:30pm 13.1 8.2 8.6 74 2.2 SSW 24 33 13 18 1020.3 1020.3 0.0
23/11:00pm 12.9 7.7 8.8 76 2.0 SSW 26 35 14 19 1019.9 1019.9 0.0
23/10:30pm 13.1 7.9 9.0 76 2.1 SW 26 39 14 21 1019.6 1019.6 0.0
23/10:00pm 12.7 8.1 9.7 82 1.5 SW 24 32 13 17 1019.6 1019.6 0.0
23/09:30pm 12.9 7.6 9.9 82 1.5 SW 28 41 15 22 1019.3 1019.3 0.0
23/09:00pm 12.8 8.0 10.3 85 1.3 SW 26 37 14 20 1019.3 1019.3 0.0
23/08:30pm 13.7 8.1 10.1 79 1.9 SW 30 44 16 24 1019.5 1019.5 0.0
23/08:00pm 14.1 8.4 11.1 82 1.6 SSW 32 46 17 25 1019.1 1019.1 0.0
23/07:30pm 14.3 8.6 11.3 82 1.6 SW 32 43 17 23 1018.4 1018.4 0.0
23/07:18pm 14.5 9.7 11.5 82 1.6 SW 28 46 15 25 1018.3 1018.3 0.0
23/07:00pm 15.0 10.6 11.8 81 1.7 SW 26 41 14 22 1017.9 1017.9 0.0
23/06:30pm 15.3 11.7 11.7 79 1.9 WSW 22 32 12 17 1017.0 1017.0 0.0
23/06:00pm 15.3 11.6 11.5 78 2.0 WSW 22 35 12 19 1016.6 1016.6 0.0
23/05:30pm 16.2 12.0 11.2 72 2.7 WSW 24 33 13 18 1016.1 1016.1 0.0
23/05:00pm 16.4 12.8 9.8 65 3.4 WSW 19 28 10 15 1015.2 1015.2 0.0
23/04:30pm 17.0 13.9 8.9 59 4.2 WSW 15 20 8 11 1014.1 1014.1 0.0
23/04:00pm 17.3 15.1 9.2 59 4.2 W 11 15 6 8 1013.8 1013.8 0.0
23/03:30pm 17.7 14.2 8.8 56 4.6 WSW 17 28 9 15 1013.4 1013.4 0.0
23/03:00pm 18.2 14.5 9.3 56 4.7 WSW 19 28 10 15 1013.1 1013.1 0.0
23/02:30pm 19.0 14.5 8.6 51 5.4 WSW 22 33 12 18 1013.1 1013.1 0.0
23/02:00pm 20.0 14.9 7.7 45 6.3 WSW 24 35 13 19 1012.8 1012.8 0.0
23/01:34pm 23.7 15.0 -0.6 20 10.9 WSW 35 54 19 29 1012.7 1012.7 0.0
23/01:30pm 24.5 15.7 -4.7 14 12.2 W 33 50 18 27 1012.5 1012.5 0.0
23/01:29pm 25.5 16.9 -3.9 14 12.6 W 32 48 17 26 1012.6 1012.6 0.0
23/01:00pm 29.1 21.6 -8.5 8 15.4 NW 24 46 13 25 1011.8 1011.8 0.0
23/12:54pm 28.3 19.9 -10.7 7 15.2 NW 28 46 15 25 1012.0 1012.0 0.0
23/12:30pm 29.0 21.5 -8.5 8 15.3 NW 24 39 13 21 1012.2 1012.2 0.0
23/12:00pm 27.9 19.6 -9.4 8 14.8 NW 28 46 15 25 1012.8 1012.8 0.0
23/11:58am 27.8 19.5 -9.4 8 14.8 NW 28 46 15 25 1012.8 1012.8 0.0
23/11:30am 27.7 20.1 -9.5 8 14.7 NNW 24 43 13 23 1013.3 1013.3 0.0
23/11:00am 27.0 19.1 -8.5 9 14.2 NNW 26 41 14 22 1013.9 1013.9 0.0
23/10:30am 26.7 18.8 -8.8 9 14.1 NNW 26 41 14 22 1014.6 1014.6 0.0
23/10:00am 25.5 18.0 -8.3 10 13.4 NNW 24 35 13 19 1015.1 1015.1 0.0
23/09:30am 24.2 17.1 -8.1 11 12.7 NNW 22 35 12 19 1015.7 1015.7 0.0
23/09:00am 21.8 15.7 -4.3 17 10.7 NNW 19 28 10 15 1016.3 1016.3 0.8
23/08:30am 18.4 12.8 -3.1 23 8.8 N 17 26 9 14 1016.6 1016.6 0.8

Other formats

Comma delimited format used in spreadsheet applications
http://www.bom.gov.au/fwo/IDW60801/IDW60801.94644.axf

JavaScript Object Notation format (JSON) in row-major order
http://www.bom.gov.au/fwo/IDW60801/IDW60801.94644.json

Data quality

Most of these data are generated automatically and are frequently updated. Quality checks on data are not normally performed. It is possible for incorrect values to appear. Refer to information at About Latest Weather Observations and please check the disclaimer before using these data.